createdAt,value
2022-10-19T00:02:22.068Z,1.20
2022-10-19T00:04:48.598Z,1.30
2022-10-19T00:07:39.899Z,1.00
2022-10-19T00:10:06.729Z,1.10
2022-10-19T00:12:33.408Z,1.20
2022-10-19T00:15:00.264Z,1.40
2022-10-19T00:17:26.774Z,1.70
2022-10-19T00:19:53.321Z,0.93
2022-10-19T00:22:19.809Z,1.30
2022-10-19T00:24:46.749Z,1.17
2022-10-19T00:27:13.411Z,1.00
2022-10-19T00:29:40.010Z,1.30
2022-10-19T00:32:06.546Z,1.23
2022-10-19T00:34:33.063Z,0.90
2022-10-19T00:36:59.624Z,1.20
2022-10-19T00:39:26.103Z,0.80
2022-10-19T00:41:52.674Z,1.25
2022-10-19T00:44:19.106Z,1.15
2022-10-19T00:46:50.535Z,1.13
2022-10-19T00:49:23.663Z,1.10
2022-10-19T00:52:01.437Z,1.00
2022-10-19T00:54:28.503Z,1.10
2022-10-19T00:56:57.938Z,1.33
2022-10-19T00:59:26.600Z,1.35
2022-10-19T01:01:54.334Z,1.15
2022-10-19T01:04:23.496Z,1.13
2022-10-19T01:09:17.710Z,1.13
2022-10-19T01:12:15.132Z,1.30
2022-10-19T01:14:44.599Z,1.02
2022-10-19T01:17:44.849Z,1.30
2022-10-19T01:20:48.873Z,1.15
2022-10-19T01:23:31.487Z,0.90
2022-10-19T01:26:07.167Z,1.30
2022-10-19T01:29:01.814Z,1.50
2022-10-19T01:31:46.864Z,0.90
2022-10-19T01:34:15.323Z,0.90
2022-10-19T01:36:47.973Z,0.90
2022-10-19T01:39:45.259Z,1.30
2022-10-19T01:42:33.236Z,1.20
2022-10-19T01:45:07.897Z,1.00
2022-10-19T01:48:08.315Z,0.90
2022-10-19T01:50:45.727Z,1.13
2022-10-19T01:53:14.391Z,1.00
2022-10-19T01:55:44.627Z,0.80
2022-10-19T01:58:16.542Z,1.30
2022-10-19T02:00:46.278Z,1.20
2022-10-19T02:03:14.272Z,1.10
2022-10-19T02:05:42.139Z,1.30
2022-10-19T02:08:14.986Z,1.40
2022-10-19T02:10:44.434Z,1.02
2022-10-19T02:13:13.901Z,1.02
2022-10-19T02:15:45.676Z,1.23
2022-10-19T02:18:19.810Z,1.30
2022-10-19T02:20:46.742Z,0.95
2022-10-19T02:23:18.668Z,1.25
2022-10-19T02:25:45.189Z,1.10
2022-10-19T02:28:11.946Z,1.33
2022-10-19T02:30:38.545Z,0.90
2022-10-19T02:33:05.282Z,1.08
2022-10-19T02:35:31.784Z,1.05
2022-10-19T02:38:00.974Z,1.20
2022-10-19T02:40:29.820Z,1.35
2022-10-19T02:43:00.409Z,1.23
2022-10-19T02:45:35.203Z,0.82
2022-10-19T02:48:13.636Z,0.88
2022-10-19T02:50:44.277Z,1.08
2022-10-19T02:53:11.033Z,0.93
2022-10-19T02:55:37.676Z,1.27
2022-10-19T02:58:04.317Z,1.27
2022-10-19T03:00:30.809Z,1.20
2022-10-19T03:02:57.345Z,1.15
2022-10-19T03:05:24.340Z,1.13
2022-10-19T03:07:51.078Z,1.67
2022-10-19T03:10:18.054Z,1.30
2022-10-19T03:12:45.038Z,0.93
2022-10-19T03:15:18.894Z,0.90
2022-10-19T03:17:48.751Z,1.08
2022-10-19T03:20:15.346Z,1.10
2022-10-19T03:22:42.210Z,1.27
2022-10-19T03:25:09.519Z,1.30
2022-10-19T03:27:36.668Z,0.93
2022-10-19T03:30:03.923Z,0.85
2022-10-19T03:32:30.420Z,0.90
2022-10-19T03:34:56.918Z,1.33
2022-10-19T03:37:23.643Z,1.08
2022-10-19T03:39:53.106Z,0.95
2022-10-19T03:42:20.383Z,1.38
2022-10-19T03:44:47.582Z,0.90
2022-10-19T03:47:14.249Z,1.13
2022-10-19T03:49:41.134Z,1.20
2022-10-19T03:52:09.954Z,0.85
2022-10-19T03:54:36.702Z,0.88
2022-10-19T03:57:03.309Z,0.98
2022-10-19T03:59:30.048Z,1.00
2022-10-19T04:01:56.581Z,1.15
2022-10-19T04:04:23.044Z,0.95
2022-10-19T04:06:50.474Z,0.80
2022-10-19T04:09:19.406Z,1.27
2022-10-19T04:11:46.090Z,0.90
2022-10-19T04:14:19.334Z,1.10
2022-10-19T04:16:53.872Z,1.00
2022-10-19T04:19:20.662Z,1.15
2022-10-19T04:21:49.359Z,1.25
2022-10-19T04:24:19.597Z,1.17
2022-10-19T04:26:49.440Z,1.20
2022-10-19T04:29:19.123Z,1.10
2022-10-19T04:31:50.562Z,0.90
2022-10-19T04:34:18.442Z,1.30
2022-10-19T04:36:49.371Z,1.42
2022-10-19T04:39:16.188Z,1.10
2022-10-19T04:41:42.733Z,1.10
2022-10-19T04:44:09.672Z,1.38
2022-10-19T04:46:37.324Z,1.05
2022-10-19T04:49:06.212Z,1.40
2022-10-19T04:51:32.832Z,0.90
2022-10-19T04:54:00.343Z,1.02
2022-10-19T04:56:29.633Z,1.00
2022-10-19T04:59:00.867Z,1.80
2022-10-19T05:01:30.928Z,1.40
2022-10-19T05:04:02.486Z,1.00
2022-10-19T05:06:30.876Z,0.90
2022-10-19T05:08:58.299Z,1.40
2022-10-19T05:11:28.197Z,1.10
2022-10-19T05:13:56.350Z,2.92
2022-10-19T05:16:26.014Z,1.75
2022-10-19T05:18:59.617Z,1.63
2022-10-19T05:21:29.676Z,1.40
2022-10-19T05:23:57.482Z,1.55
2022-10-19T05:26:26.366Z,1.80
2022-10-19T05:28:56.767Z,1.20
2022-10-19T05:31:26.950Z,1.38
2022-10-19T05:33:56.218Z,1.83
2022-10-19T05:36:29.435Z,1.45
2022-10-19T05:38:57.371Z,1.02
2022-10-19T05:41:25.434Z,1.15
2022-10-19T05:43:54.047Z,1.35
2022-10-19T05:46:20.730Z,1.50
2022-10-19T05:48:47.391Z,1.30
2022-10-19T05:51:16.980Z,1.10
2022-10-19T05:53:43.889Z,1.20
2022-10-19T05:56:15.309Z,1.70
2022-10-19T05:58:41.864Z,1.40
2022-10-19T06:01:09.385Z,1.30
2022-10-19T06:03:36.507Z,1.38
2022-10-19T06:06:05.051Z,1.55
2022-10-19T06:08:31.856Z,1.27
2022-10-19T06:11:10.255Z,1.70
2022-10-19T06:13:37.733Z,1.95
2022-10-19T06:16:05.447Z,1.95
2022-10-19T06:18:32.232Z,1.55
2022-10-19T06:21:03.919Z,1.48
2022-10-19T06:23:31.603Z,1.40
2022-10-19T06:25:58.477Z,1.50
2022-10-19T06:28:25.139Z,1.67
2022-10-19T06:30:51.713Z,1.20
2022-10-19T06:33:18.307Z,1.13
2022-10-19T06:35:44.761Z,1.30
2022-10-19T06:38:13.717Z,1.50
2022-10-19T06:40:40.342Z,1.25
2022-10-19T06:43:06.975Z,1.58
2022-10-19T06:45:36.010Z,1.88
2022-10-19T06:48:06.571Z,1.70
2022-10-19T06:50:34.243Z,1.70
2022-10-19T06:53:00.726Z,1.70
2022-10-19T06:55:27.372Z,1.42
2022-10-19T06:57:53.854Z,1.27
2022-10-19T07:00:20.496Z,1.20
2022-10-19T07:02:47.025Z,1.90
2022-10-19T07:05:13.594Z,1.90
2022-10-19T07:07:40.154Z,2.25
2022-10-19T07:10:08.092Z,1.70
2022-10-19T07:12:34.718Z,1.52
2022-10-19T07:15:01.347Z,1.73
2022-10-19T07:17:27.841Z,1.60
2022-10-19T07:19:54.980Z,1.60
2022-10-19T07:22:27.213Z,1.95
2022-10-19T07:24:54.675Z,2.13
2022-10-19T07:27:21.247Z,1.95
2022-10-19T07:29:47.781Z,1.63
2022-10-19T07:32:14.286Z,1.90
2022-10-19T07:34:40.761Z,1.58
2022-10-19T07:37:07.345Z,1.95
2022-10-19T07:39:33.908Z,1.92
2022-10-19T07:42:02.705Z,2.22
2022-10-19T07:44:29.249Z,2.00
2022-10-19T07:46:55.983Z,2.83
2022-10-19T07:49:24.220Z,1.80
2022-10-19T07:51:54.015Z,1.65
2022-10-19T07:54:21.461Z,1.80
2022-10-19T07:56:48.156Z,2.40
2022-10-19T07:59:16.246Z,2.33
2022-10-19T08:01:47.540Z,1.27
2022-10-19T08:04:55.528Z,1.77
2022-10-19T08:09:51.503Z,1.42
2022-10-19T08:14:42.259Z,1.85
2022-10-19T08:17:11.834Z,1.45
2022-10-19T08:19:43.351Z,1.70
2022-10-19T08:22:11.087Z,1.50
2022-10-19T08:24:37.863Z,1.40
2022-10-19T08:27:04.450Z,1.50
2022-10-19T08:29:31.740Z,1.80
2022-10-19T08:32:00.057Z,1.75
2022-10-19T08:34:26.636Z,1.67
2022-10-19T08:36:53.399Z,1.95
2022-10-19T08:39:19.849Z,1.88
2022-10-19T08:42:06.576Z,2.17
2022-10-19T08:45:04.202Z,1.92
2022-10-19T08:47:49.594Z,1.80
2022-10-19T08:50:27.016Z,1.73
2022-10-19T08:53:03.458Z,1.67
2022-10-19T08:55:53.242Z,1.88
2022-10-19T08:58:31.986Z,1.95
2022-10-19T09:01:35.354Z,2.10
2022-10-19T09:04:16.384Z,2.00
2022-10-19T09:07:03.966Z,1.73
2022-10-19T09:09:32.575Z,1.83
2022-10-19T09:12:05.909Z,1.60
2022-10-19T09:14:40.771Z,1.95
2022-10-19T09:17:12.846Z,1.20
2022-10-19T09:19:39.422Z,1.80
2022-10-19T09:22:19.883Z,1.85
2022-10-19T09:24:52.602Z,1.70
2022-10-19T09:27:21.948Z,1.52
2022-10-19T09:29:51.293Z,1.90
2022-10-19T09:32:23.260Z,1.60
2022-10-19T09:34:56.655Z,1.92
2022-10-19T09:37:26.641Z,1.83
2022-10-19T09:39:55.598Z,1.70
2022-10-19T09:42:33.113Z,1.60
2022-10-19T09:45:02.586Z,1.50
2022-10-19T09:47:38.176Z,1.27
2022-10-19T09:50:13.822Z,1.80
2022-10-19T09:52:42.684Z,1.45
2022-10-19T09:55:18.399Z,1.60
2022-10-19T09:57:50.184Z,1.48
2022-10-19T10:00:31.955Z,1.65
2022-10-19T10:02:58.654Z,1.58
2022-10-19T10:05:34.658Z,1.58
2022-10-19T10:08:01.833Z,1.60
2022-10-19T10:10:35.976Z,1.27
2022-10-19T10:13:03.386Z,1.73
2022-10-19T10:15:41.264Z,1.10
2022-10-19T10:18:14.523Z,1.35
2022-10-19T10:20:58.933Z,1.40
2022-10-19T10:23:31.054Z,1.20
2022-10-19T10:25:59.426Z,1.30
2022-10-19T10:28:28.205Z,0.85
2022-10-19T10:31:01.154Z,1.30
2022-10-19T10:33:45.998Z,1.30
2022-10-19T10:36:13.096Z,1.30
2022-10-19T10:38:45.717Z,1.25
2022-10-19T10:41:18.618Z,1.30
2022-10-19T10:43:57.501Z,1.25
2022-10-19T10:46:33.617Z,1.20
2022-10-19T10:49:04.080Z,1.40
2022-10-19T10:51:39.348Z,1.13
2022-10-19T10:54:16.882Z,1.17
2022-10-19T10:56:44.782Z,1.00
2022-10-19T10:59:19.474Z,1.25
2022-10-19T11:01:54.315Z,1.20
2022-10-19T11:04:26.146Z,1.42
2022-10-19T11:06:58.310Z,1.20
2022-10-19T11:09:38.394Z,1.17
2022-10-19T11:12:10.261Z,1.50
2022-10-19T11:14:47.660Z,1.20
2022-10-19T11:17:23.241Z,1.17
2022-10-19T11:19:53.599Z,1.08
2022-10-19T11:22:40.713Z,1.02
2022-10-19T11:25:18.156Z,0.80
2022-10-19T11:27:56.826Z,0.75
2022-10-19T11:30:25.004Z,0.95
2022-10-19T11:33:28.576Z,1.20
2022-10-19T11:36:03.877Z,1.42
2022-10-19T11:38:55.656Z,1.13
2022-10-19T11:41:31.604Z,1.17
2022-10-19T11:44:09.468Z,0.90
2022-10-19T11:46:39.459Z,1.30
2022-10-19T11:49:23.641Z,0.90
2022-10-19T11:51:59.045Z,1.10
2022-10-19T11:54:31.942Z,1.35
2022-10-19T11:57:05.553Z,1.05
2022-10-19T11:59:43.497Z,0.80
2022-10-19T12:04:48.575Z,0.95
2022-10-19T12:07:49.221Z,1.00
2022-10-19T12:10:28.751Z,1.30
2022-10-19T12:13:03.446Z,1.10
2022-10-19T12:15:36.139Z,1.10
2022-10-19T12:18:10.290Z,1.85
2022-10-19T12:20:46.128Z,1.38
2022-10-19T12:23:35.607Z,1.63
2022-10-19T12:26:05.693Z,1.65
2022-10-19T12:28:36.782Z,1.58
2022-10-19T12:31:05.866Z,1.40
2022-10-19T12:33:47.773Z,1.13
2022-10-19T12:36:33.097Z,1.00
2022-10-19T12:39:04.504Z,1.00
2022-10-19T12:41:52.384Z,0.88
2022-10-19T12:44:57.865Z,0.93
2022-10-19T12:47:25.540Z,0.90
2022-10-19T12:49:57.422Z,1.00
2022-10-19T12:52:42.420Z,1.00
2022-10-19T12:55:13.525Z,0.70
2022-10-19T12:57:40.757Z,0.90
2022-10-19T13:00:19.627Z,1.15
2022-10-19T13:02:48.435Z,1.00
2022-10-19T13:05:22.977Z,1.20
2022-10-19T13:10:26.116Z,4.40
2022-10-19T13:12:53.698Z,1.20
2022-10-19T13:15:35.116Z,1.33
2022-10-19T13:18:11.934Z,1.10
2022-10-19T13:20:38.379Z,0.80
2022-10-19T13:23:04.838Z,0.90
2022-10-19T13:25:35.753Z,0.63
2022-10-19T13:28:12.613Z,0.80
2022-10-19T13:30:39.166Z,0.70
2022-10-19T13:33:33.217Z,0.70
2022-10-19T13:35:59.749Z,0.80
2022-10-19T13:39:06.021Z,0.60
2022-10-19T13:41:38.547Z,0.70
2022-10-19T13:44:15.287Z,0.80
2022-10-19T13:46:47.781Z,0.50
2022-10-19T13:49:20.469Z,0.70
2022-10-19T13:52:03.515Z,0.60
2022-10-19T13:54:48.988Z,0.63
2022-10-19T13:57:32.019Z,0.80
2022-10-19T14:00:18.087Z,0.60
2022-10-19T14:03:05.366Z,0.60
2022-10-19T14:06:19.521Z,0.70
2022-10-19T14:08:49.594Z,0.80
2022-10-19T14:11:26.174Z,0.73
2022-10-19T14:14:11.007Z,0.70
2022-10-19T14:16:59.700Z,0.68
2022-10-19T14:19:44.433Z,0.77
2022-10-19T14:22:26.492Z,0.60
2022-10-19T14:25:01.662Z,0.77
2022-10-19T14:27:28.456Z,0.98
2022-10-19T14:29:55.062Z,0.73
2022-10-19T14:32:27.933Z,0.50
2022-10-19T14:35:00.043Z,0.60
2022-10-19T14:37:27.294Z,0.50
2022-10-19T14:40:08.495Z,0.60
2022-10-19T14:42:45.041Z,0.40
2022-10-19T14:45:23.824Z,0.63
2022-10-19T14:47:55.124Z,0.60
2022-10-19T14:50:27.039Z,0.60
2022-10-19T14:53:01.033Z,0.70
2022-10-19T14:55:34.463Z,0.60
2022-10-19T14:58:02.021Z,0.50
2022-10-19T15:00:32.161Z,0.63
2022-10-19T15:03:07.139Z,0.50
2022-10-19T15:05:37.765Z,0.50
2022-10-19T15:08:11.650Z,0.60
2022-10-19T15:10:45.688Z,0.50
2022-10-19T15:13:24.980Z,0.50
2022-10-19T15:15:53.554Z,0.60
2022-10-19T15:18:43.961Z,0.50
2022-10-19T15:21:17.809Z,0.88
2022-10-19T15:23:46.399Z,0.50
2022-10-19T15:26:18.475Z,0.47
2022-10-19T15:28:47.553Z,0.50
2022-10-19T15:31:21.445Z,0.60
2022-10-19T15:33:52.599Z,0.50
2022-10-19T15:36:29.367Z,0.45
2022-10-19T15:39:18.330Z,0.63
2022-10-19T15:41:51.482Z,0.68
2022-10-19T15:44:42.376Z,0.52
2022-10-19T15:47:14.847Z,0.60
2022-10-19T15:49:41.353Z,0.80
2022-10-19T15:52:25.177Z,0.70
2022-10-19T15:54:56.643Z,0.80
2022-10-19T15:57:34.171Z,0.60
2022-10-19T16:00:21.512Z,0.70
2022-10-19T16:02:47.997Z,0.80
2022-10-19T16:05:14.501Z,1.00
2022-10-19T16:07:41.923Z,1.10
2022-10-19T16:10:15.139Z,0.77
2022-10-19T16:12:41.669Z,1.23
2022-10-19T16:15:12.539Z,1.55
2022-10-19T16:17:39.796Z,1.45
2022-10-19T16:20:06.650Z,1.80
2022-10-19T16:22:33.476Z,1.73
2022-10-19T16:24:59.966Z,2.03
2022-10-19T16:27:26.504Z,3.00
2022-10-19T16:29:53.031Z,2.83
2022-10-19T16:32:19.496Z,2.80
2022-10-19T16:34:46.512Z,3.00
2022-10-19T16:37:13.016Z,3.10
2022-10-19T16:39:39.505Z,2.10
2022-10-19T16:42:06.010Z,2.10
2022-10-19T16:44:32.478Z,2.38
2022-10-19T16:46:59.800Z,3.20
2022-10-19T16:49:26.344Z,4.18
2022-10-19T16:51:56.276Z,7.22
2022-10-19T16:54:26.484Z,6.78
2022-10-19T16:56:53.323Z,7.65
2022-10-19T16:59:19.989Z,6.63
2022-10-19T17:01:47.037Z,5.57
2022-10-19T17:04:15.735Z,5.57
2022-10-19T17:06:42.411Z,7.53
2022-10-19T17:11:55.984Z,5.78
2022-10-19T17:14:22.479Z,5.22
2022-10-19T17:16:49.017Z,4.68
2022-10-19T17:19:15.723Z,4.45
2022-10-19T17:21:42.673Z,3.78
2022-10-19T17:24:20.225Z,9.15
2022-10-19T17:26:48.791Z,5.07
2022-10-19T17:29:15.315Z,4.82
2022-10-19T17:31:42.957Z,5.18
2022-10-19T17:34:10.552Z,4.85
2022-10-19T17:36:44.192Z,4.25
2022-10-19T17:39:17.937Z,4.68
2022-10-19T17:41:49.330Z,3.53
2022-10-19T17:44:17.581Z,3.00
2022-10-19T17:46:44.850Z,2.90
2022-10-19T17:49:12.447Z,2.63
2022-10-19T17:51:39.791Z,2.70
2022-10-19T17:54:09.401Z,2.75
2022-10-19T17:56:36.754Z,3.17
2022-10-19T17:59:04.569Z,3.10
2022-10-19T18:01:31.430Z,2.40
2022-10-19T18:03:57.997Z,2.50
2022-10-19T18:06:29.528Z,2.60
2022-10-19T18:11:45.043Z,3.25
2022-10-19T18:14:13.044Z,2.92
2022-10-19T18:16:45.833Z,2.80
2022-10-19T18:19:14.821Z,2.63
2022-10-19T18:21:43.389Z,3.53
2022-10-19T18:24:15.369Z,2.80
2022-10-19T18:26:42.573Z,3.10
2022-10-19T18:29:24.292Z,4.35
2022-10-19T18:31:52.422Z,3.58
2022-10-19T18:34:22.495Z,2.83
2022-10-19T18:36:50.113Z,3.85
2022-10-19T18:39:17.445Z,5.95
2022-10-19T18:41:44.004Z,10.05
2022-10-19T18:44:13.865Z,13.15
2022-10-19T18:46:40.970Z,7.75
2022-10-19T18:49:08.756Z,5.65
2022-10-19T18:51:35.966Z,3.80
2022-10-19T18:54:02.547Z,4.40
2022-10-19T18:56:29.626Z,13.98
2022-10-19T18:58:57.124Z,6.70
2022-10-19T19:01:29.208Z,4.63
2022-10-19T19:04:04.332Z,4.18
2022-10-19T19:06:31.646Z,4.80
2022-10-19T19:08:59.884Z,6.32
2022-10-19T19:11:35.843Z,10.20
2022-10-19T19:14:20.920Z,12.18
2022-10-19T19:16:47.658Z,12.25
2022-10-19T19:19:15.977Z,10.23
2022-10-19T19:21:44.328Z,10.48
2022-10-19T19:24:16.749Z,8.52
2022-10-19T19:26:48.288Z,5.47
2022-10-19T19:29:15.591Z,9.13
2022-10-19T19:31:42.176Z,9.18
2022-10-19T19:34:09.491Z,10.27
2022-10-19T19:36:38.180Z,8.32
2022-10-19T19:39:05.201Z,5.15
2022-10-19T19:41:34.006Z,4.65
2022-10-19T19:44:00.604Z,4.80
2022-10-19T19:46:27.184Z,4.70
2022-10-19T19:49:00.771Z,4.25
2022-10-19T19:51:28.916Z,5.00
2022-10-19T19:53:56.127Z,2.95
2022-10-19T19:56:23.495Z,3.10
2022-10-19T19:58:54.624Z,3.10
2022-10-19T20:01:21.762Z,5.68
2022-10-19T20:03:49.000Z,3.80
2022-10-19T20:06:22.081Z,3.47
2022-10-19T20:08:51.895Z,3.38
2022-10-19T20:11:18.565Z,2.30
2022-10-19T20:13:45.855Z,2.72
2022-10-19T20:16:18.465Z,2.10
2022-10-19T20:18:47.925Z,1.88
2022-10-19T20:21:15.336Z,1.83
2022-10-19T20:23:46.395Z,2.03
2022-10-19T20:26:21.225Z,3.58
2022-10-19T20:28:48.224Z,2.13
2022-10-19T20:31:15.218Z,2.28
2022-10-19T20:33:43.295Z,1.77
2022-10-19T20:36:11.388Z,1.55
2022-10-19T20:38:39.245Z,1.88
2022-10-19T20:41:08.421Z,1.83
2022-10-19T20:43:37.193Z,1.52
2022-10-19T20:46:22.258Z,1.75
2022-10-19T20:48:50.155Z,1.50
2022-10-19T20:51:19.622Z,1.60
2022-10-19T20:53:48.615Z,1.30
2022-10-19T20:56:21.656Z,1.40
2022-10-19T20:58:50.327Z,1.70
2022-10-19T21:01:19.006Z,1.67
2022-10-19T21:04:00.750Z,1.60
2022-10-19T21:06:29.337Z,1.40
2022-10-19T21:08:56.160Z,1.23
2022-10-19T21:11:31.718Z,1.40
2022-10-19T21:14:03.797Z,1.60
2022-10-19T21:16:33.636Z,1.70
2022-10-19T21:19:02.132Z,1.42
2022-10-19T21:21:35.171Z,1.33
2022-10-19T21:24:07.421Z,1.23
2022-10-19T21:26:35.571Z,1.45
2022-10-19T21:29:03.068Z,1.52
2022-10-19T21:31:30.697Z,1.50
2022-10-19T21:33:57.665Z,1.42
2022-10-19T21:36:27.662Z,1.23
2022-10-19T21:38:54.194Z,1.10
2022-10-19T21:41:25.394Z,1.23
2022-10-19T21:43:54.136Z,1.52
2022-10-19T21:46:22.686Z,1.25
2022-10-19T21:48:49.571Z,1.30
2022-10-19T21:51:18.876Z,1.30
2022-10-19T21:53:46.587Z,1.48
2022-10-19T21:56:14.286Z,1.40
2022-10-19T21:58:45.600Z,1.38
2022-10-19T22:01:12.793Z,1.35
2022-10-19T22:03:39.414Z,1.23
2022-10-19T22:06:06.510Z,1.40
2022-10-19T22:08:33.297Z,1.45
2022-10-19T22:11:06.270Z,1.30
2022-10-19T22:13:33.825Z,1.40
2022-10-19T22:16:05.014Z,1.50
2022-10-19T22:18:31.935Z,1.40
2022-10-19T22:21:03.204Z,1.38
2022-10-19T22:23:29.849Z,1.25
2022-10-19T22:26:03.969Z,1.95
2022-10-19T22:28:36.665Z,1.60
2022-10-19T22:31:09.908Z,1.20
2022-10-19T22:33:39.492Z,1.83
2022-10-19T22:36:12.390Z,1.17
2022-10-19T22:38:44.078Z,1.48
2022-10-19T22:41:12.629Z,1.58
2022-10-19T22:43:40.481Z,1.38
2022-10-19T22:46:12.029Z,1.40
2022-10-19T22:48:42.105Z,1.30
2022-10-19T22:51:12.906Z,1.38
2022-10-19T22:53:45.408Z,1.30
2022-10-19T22:56:21.645Z,1.40
2022-10-19T22:59:03.218Z,1.70
2022-10-19T23:01:34.418Z,1.60
2022-10-19T23:04:05.334Z,1.50
2022-10-19T23:06:42.801Z,1.70
2022-10-19T23:09:16.523Z,1.38
2022-10-19T23:11:46.948Z,1.30
2022-10-19T23:14:15.526Z,1.40
2022-10-19T23:16:42.065Z,1.30
2022-10-19T23:19:08.595Z,1.27
2022-10-19T23:21:35.177Z,1.40
2022-10-19T23:24:01.711Z,1.30
2022-10-19T23:26:28.393Z,1.50
2022-10-19T23:28:54.940Z,1.30
2022-10-19T23:31:24.794Z,1.48
2022-10-19T23:33:52.223Z,1.90
2022-10-19T23:36:25.070Z,1.80
2022-10-19T23:38:52.871Z,1.70
2022-10-19T23:41:20.135Z,1.60
2022-10-19T23:43:46.761Z,1.58
2022-10-19T23:46:14.104Z,1.67
2022-10-19T23:48:41.891Z,1.65
2022-10-19T23:51:10.772Z,1.50
2022-10-19T23:53:41.066Z,1.52
2022-10-19T23:56:19.754Z,1.48
2022-10-19T23:58:46.951Z,1.70
